createdAt,value
2019-05-06T00:00:27.264Z,101343.19
2019-05-06T00:02:56.589Z,101348.73
2019-05-06T00:05:25.902Z,101349.47
2019-05-06T00:07:55.287Z,101348.11
2019-05-06T00:10:26.732Z,101348.80
2019-05-06T00:12:56.528Z,101347.00
2019-05-06T00:15:26.079Z,101347.06
2019-05-06T00:17:55.481Z,101345.23
2019-05-06T00:20:24.858Z,101343.42
2019-05-06T00:22:56.980Z,101343.72
2019-05-06T00:25:44.143Z,101343.92
2019-05-06T00:28:34.010Z,101349.67
2019-05-06T00:31:12.916Z,101347.67
2019-05-06T00:33:36.451Z,101353.05
2019-05-06T00:36:06.076Z,101354.76
2019-05-06T00:38:36.217Z,101350.75
2019-05-06T00:41:07.885Z,101353.14
2019-05-06T00:43:37.166Z,101347.02
2019-05-06T00:46:10.094Z,101350.25
2019-05-06T00:48:39.389Z,101346.73
2019-05-06T00:51:08.894Z,101347.31
2019-05-06T00:53:44.085Z,101350.53
2019-05-06T00:56:14.029Z,101350.23
2019-05-06T00:58:50.917Z,101353.69
2019-05-06T01:01:27.003Z,101348.50
2019-05-06T01:03:53.571Z,101353.55
2019-05-06T01:06:24.676Z,101351.92
2019-05-06T01:08:55.074Z,101346.08
2019-05-06T01:11:24.442Z,101346.03
2019-05-06T01:14:00.002Z,101352.36
2019-05-06T01:16:29.506Z,101350.27
2019-05-06T01:18:58.761Z,101351.98
2019-05-06T01:21:28.068Z,101351.50
2019-05-06T01:23:57.574Z,101355.37
2019-05-06T01:26:26.897Z,101359.14
2019-05-06T01:28:56.192Z,101362.28
2019-05-06T01:31:39.525Z,101358.73
2019-05-06T01:33:56.711Z,101350.70
2019-05-06T01:36:26.279Z,101358.67
2019-05-06T01:39:17.521Z,101358.99
2019-05-06T01:42:05.984Z,101355.79
2019-05-06T01:44:35.352Z,101349.54
2019-05-06T01:47:04.641Z,101353.01
2019-05-06T01:49:34.192Z,101350.91
2019-05-06T01:52:04.134Z,101353.44
2019-05-06T01:54:34.333Z,101350.11
2019-05-06T01:57:04.564Z,101349.66
2019-05-06T01:59:34.296Z,101355.02
2019-05-06T02:02:04.581Z,101354.91
2019-05-06T02:04:34.035Z,101349.06
2019-05-06T02:07:03.962Z,101345.10
2019-05-06T02:09:34.237Z,101339.90
2019-05-06T02:12:04.784Z,101335.52
2019-05-06T02:14:34.366Z,101334.05
2019-05-06T02:17:03.835Z,101331.87
2019-05-06T02:19:34.747Z,101323.42
2019-05-06T02:22:09.755Z,101328.09
2019-05-06T02:24:43.968Z,101322.37
2019-05-06T02:27:13.938Z,101318.72
2019-05-06T02:29:54.284Z,101323.12
2019-05-06T02:32:35.930Z,101316.52
2019-05-06T02:35:26.291Z,101317.05
2019-05-06T02:37:55.169Z,101316.52
2019-05-06T02:40:27.649Z,101301.13
2019-05-06T02:42:57.245Z,101308.32
2019-05-06T02:45:26.619Z,101309.27
2019-05-06T02:48:06.498Z,101308.92
2019-05-06T02:50:53.968Z,101307.98
2019-05-06T02:53:25.461Z,101307.13
2019-05-06T02:55:54.713Z,101303.93
2019-05-06T02:58:24.087Z,101297.44
2019-05-06T03:00:54.097Z,101289.92
2019-05-06T03:03:23.571Z,101288.11
2019-05-06T03:05:53.423Z,101285.64
2019-05-06T03:08:23.850Z,101286.52
2019-05-06T03:10:53.715Z,101283.47
2019-05-06T03:13:23.817Z,101278.50
2019-05-06T03:15:54.313Z,101274.29
2019-05-06T03:18:24.016Z,101283.07
2019-05-06T03:21:13.768Z,101285.69
2019-05-06T03:23:46.716Z,101279.45
2019-05-06T03:26:16.544Z,101279.78
2019-05-06T03:28:45.798Z,101274.94
2019-05-06T03:31:17.051Z,101278.97
2019-05-06T03:34:09.227Z,101281.69
2019-05-06T03:36:25.686Z,101276.45
2019-05-06T03:38:49.050Z,101269.89
2019-05-06T03:41:18.392Z,101266.06
2019-05-06T03:43:47.680Z,101272.86
2019-05-06T03:46:27.576Z,101272.56
2019-05-06T03:49:03.528Z,101273.30
2019-05-06T03:51:34.285Z,101265.67
2019-05-06T03:54:04.527Z,101270.31
2019-05-06T03:56:34.883Z,101263.36
2019-05-06T03:59:05.519Z,101260.59
2019-05-06T04:01:34.832Z,101250.02
2019-05-06T04:04:04.395Z,101259.02
2019-05-06T04:06:34.076Z,101260.59
2019-05-06T04:09:05.687Z,101255.56
2019-05-06T04:11:36.397Z,101246.09
2019-05-06T04:14:07.277Z,101239.89
2019-05-06T04:16:46.270Z,101241.16
2019-05-06T04:19:20.005Z,101246.80
2019-05-06T04:22:12.854Z,101238.69
2019-05-06T04:25:04.390Z,101243.78
2019-05-06T04:27:44.734Z,101241.20
2019-05-06T04:30:14.253Z,101240.04
2019-05-06T04:32:43.710Z,101243.50
2019-05-06T04:35:13.867Z,101243.77
2019-05-06T04:37:43.840Z,101237.47
2019-05-06T04:40:13.440Z,101233.69
2019-05-06T04:42:44.388Z,101233.48
2019-05-06T04:45:17.481Z,101235.52
2019-05-06T04:47:45.297Z,101230.94
2019-05-06T04:50:15.117Z,101221.61
2019-05-06T04:52:44.408Z,101227.45
2019-05-06T04:55:14.297Z,101233.83
2019-05-06T04:57:44.324Z,101221.52
2019-05-06T05:00:13.863Z,101226.76
2019-05-06T05:02:46.485Z,101226.15
2019-05-06T05:05:14.469Z,101229.75
2019-05-06T05:07:44.120Z,101229.75
2019-05-06T05:10:23.267Z,101233.74
2019-05-06T05:13:14.248Z,101221.59
2019-05-06T05:16:02.285Z,101228.38
2019-05-06T05:18:52.614Z,101231.70
2019-05-06T05:21:22.910Z,101227.16
2019-05-06T05:23:52.557Z,101227.30
2019-05-06T05:26:22.522Z,101227.42
2019-05-06T05:28:53.212Z,101227.25
2019-05-06T05:31:23.102Z,101220.53
2019-05-06T05:33:52.760Z,101221.36
2019-05-06T05:36:23.179Z,101208.25
2019-05-06T05:38:52.558Z,101213.03
2019-05-06T05:41:23.305Z,101205.17
2019-05-06T05:44:02.299Z,101202.69
2019-05-06T05:46:33.039Z,101197.53
2019-05-06T05:49:08.622Z,101203.88
2019-05-06T05:51:37.996Z,101198.47
2019-05-06T05:54:07.305Z,101194.77
2019-05-06T05:56:36.760Z,101207.02
2019-05-06T05:59:06.175Z,101200.04
2019-05-06T06:01:35.541Z,101200.19
2019-05-06T06:04:05.083Z,101208.56
2019-05-06T06:06:34.408Z,101204.88
2019-05-06T06:09:04.853Z,101203.50
2019-05-06T06:11:43.033Z,101189.07
2019-05-06T06:14:33.289Z,101176.67
2019-05-06T06:17:25.833Z,101178.93
2019-05-06T06:19:59.481Z,101183.03
2019-05-06T06:22:29.775Z,101186.90
2019-05-06T06:24:59.218Z,101180.37
2019-05-06T06:27:33.203Z,101181.76
2019-05-06T06:30:02.633Z,101180.08
2019-05-06T06:32:32.576Z,101179.47
2019-05-06T06:35:22.855Z,101180.79
2019-05-06T06:38:12.337Z,101194.88
2019-05-06T06:40:42.704Z,101182.44
2019-05-06T06:43:16.945Z,101181.31
2019-05-06T06:45:46.561Z,101194.42
2019-05-06T06:48:15.868Z,101183.75
2019-05-06T06:50:45.229Z,101182.14
2019-05-06T06:53:14.790Z,101179.95
2019-05-06T06:55:44.064Z,101184.89
2019-05-06T06:58:32.306Z,101182.89
2019-05-06T07:01:28.193Z,101181.48
2019-05-06T07:04:10.253Z,101183.28
2019-05-06T07:06:47.311Z,101175.87
2019-05-06T07:09:16.848Z,101179.46
2019-05-06T07:11:46.207Z,101178.08
2019-05-06T07:14:15.528Z,101174.80
2019-05-06T07:16:44.986Z,101175.02
2019-05-06T07:19:16.506Z,101176.48
2019-05-06T07:21:52.232Z,101172.98
2019-05-06T07:24:22.901Z,101174.09
2019-05-06T07:26:56.986Z,101181.25
2019-05-06T07:29:26.869Z,101173.81
2019-05-06T07:31:56.166Z,101172.80
2019-05-06T07:34:25.622Z,101175.11
2019-05-06T07:36:54.866Z,101170.25
2019-05-06T07:39:24.313Z,101165.60
2019-05-06T07:41:55.886Z,101171.16
2019-05-06T07:44:33.440Z,101161.19
2019-05-06T07:47:20.577Z,101153.16
2019-05-06T07:49:49.854Z,101157.78
2019-05-06T07:52:19.170Z,101162.94
2019-05-06T07:54:48.667Z,101161.80
2019-05-06T07:57:18.496Z,101154.31
2019-05-06T07:59:47.872Z,101149.65
2019-05-06T08:02:17.438Z,101160.02
2019-05-06T08:04:46.739Z,101158.66
2019-05-06T08:07:16.037Z,101155.94
2019-05-06T08:09:45.484Z,101157.03
2019-05-06T08:12:14.782Z,101150.61
2019-05-06T08:14:44.234Z,101157.61
2019-05-06T08:17:42.122Z,101154.36
2019-05-06T08:20:12.941Z,101167.86
2019-05-06T08:22:56.665Z,101177.71
2019-05-06T08:25:26.023Z,101174.09
2019-05-06T08:27:55.366Z,101176.66
2019-05-06T08:30:24.802Z,101176.87
2019-05-06T08:32:54.045Z,101184.10
2019-05-06T08:35:23.375Z,101191.41
2019-05-06T08:37:53.250Z,101196.73
2019-05-06T08:40:23.663Z,101192.22
2019-05-06T08:42:53.633Z,101197.83
2019-05-06T08:45:23.261Z,101186.78
2019-05-06T08:47:52.521Z,101183.16
2019-05-06T08:50:34.880Z,101169.75
2019-05-06T08:53:17.599Z,101165.52
2019-05-06T08:55:47.186Z,101158.48
2019-05-06T08:58:16.530Z,101156.88
2019-05-06T09:00:57.593Z,101151.76
2019-05-06T09:03:26.957Z,101151.38
2019-05-06T09:05:56.248Z,101150.64
2019-05-06T09:08:25.888Z,101144.88
2019-05-06T09:10:55.247Z,101147.20
2019-05-06T09:13:24.532Z,101149.37
2019-05-06T09:15:54.107Z,101150.59
2019-05-06T09:18:24.102Z,101158.34
2019-05-06T09:20:53.803Z,101145.96
2019-05-06T09:23:23.617Z,101142.95
2019-05-06T09:25:53.343Z,101154.52
2019-05-06T09:28:44.514Z,101148.08
2019-05-06T09:31:17.597Z,101134.64
2019-05-06T09:33:55.103Z,101132.80
2019-05-06T09:36:39.552Z,101125.96
2019-05-06T09:38:55.477Z,101128.77
2019-05-06T09:41:25.023Z,101135.00
2019-05-06T09:43:54.278Z,101142.42
2019-05-06T09:46:23.551Z,101149.50
2019-05-06T09:49:24.077Z,101148.19
2019-05-06T09:51:55.725Z,101142.54
2019-05-06T09:54:32.235Z,101143.56
2019-05-06T09:57:05.390Z,101134.23
2019-05-06T09:59:34.969Z,101134.23
2019-05-06T10:02:05.426Z,101132.48
2019-05-06T10:04:35.413Z,101140.55
2019-05-06T10:07:05.864Z,101144.86
2019-05-06T10:09:36.446Z,101133.72
2019-05-06T10:12:07.188Z,101150.97
2019-05-06T10:14:37.796Z,101146.55
2019-05-06T10:17:08.588Z,101143.66
2019-05-06T10:19:39.725Z,101148.38
2019-05-06T10:22:12.500Z,101133.61
2019-05-06T10:24:43.160Z,101151.29
2019-05-06T10:27:13.894Z,101145.89
2019-05-06T10:29:59.267Z,101145.16
2019-05-06T10:32:57.297Z,101142.78
2019-05-06T10:35:29.486Z,101141.63
2019-05-06T10:38:43.823Z,101144.23
2019-05-06T10:41:19.296Z,101163.89
2019-05-06T10:44:06.319Z,101169.64
2019-05-06T10:46:36.887Z,101183.32
2019-05-06T10:49:07.234Z,101176.71
2019-05-06T10:51:47.127Z,101185.08
2019-05-06T10:54:17.138Z,101179.94
2019-05-06T10:57:05.461Z,101172.97
2019-05-06T10:59:35.055Z,101171.21
2019-05-06T11:02:14.612Z,101161.57
2019-05-06T11:04:44.061Z,101152.46
2019-05-06T11:07:28.182Z,101155.44
2019-05-06T11:09:45.185Z,101146.16
2019-05-06T11:12:14.909Z,101145.80
2019-05-06T11:14:45.077Z,101152.00
2019-05-06T11:17:15.989Z,101153.29
2019-05-06T11:19:55.873Z,101167.22
2019-05-06T11:22:32.511Z,101168.20
2019-05-06T11:25:07.930Z,101177.76
2019-05-06T11:27:48.637Z,101179.09
2019-05-06T11:30:48.109Z,101185.27
2019-05-06T11:33:42.416Z,101176.91
2019-05-06T11:36:40.118Z,101179.56
2019-05-06T11:39:14.242Z,101162.97
2019-05-06T11:41:59.616Z,101165.54
2019-05-06T11:44:17.431Z,101162.43
2019-05-06T11:46:47.195Z,101162.50
2019-05-06T11:49:17.054Z,101159.34
2019-05-06T11:51:49.773Z,101156.03
2019-05-06T11:54:23.587Z,101152.79
2019-05-06T11:56:55.184Z,101169.11
2019-05-06T11:59:23.043Z,101164.16
2019-05-06T12:02:07.027Z,101158.11
2019-05-06T12:04:42.001Z,101150.39
2019-05-06T12:07:15.655Z,101148.75
2019-05-06T12:09:48.172Z,101146.27
2019-05-06T12:12:18.696Z,101145.02
2019-05-06T12:14:48.818Z,101145.20
2019-05-06T12:17:18.158Z,101148.20
2019-05-06T12:19:47.678Z,101152.30
2019-05-06T12:22:16.961Z,101144.88
2019-05-06T12:24:46.283Z,101147.91
2019-05-06T12:27:34.853Z,101144.69
2019-05-06T12:30:05.367Z,101143.86
2019-05-06T12:32:43.318Z,101140.74
2019-05-06T12:35:12.866Z,101129.34
2019-05-06T12:37:44.168Z,101132.20
2019-05-06T12:40:13.881Z,101126.00
2019-05-06T12:42:47.849Z,101136.42
2019-05-06T12:45:34.094Z,101143.70
2019-05-06T12:48:06.152Z,101136.06
2019-05-06T12:50:35.572Z,101136.56
2019-05-06T12:53:04.990Z,101134.92
2019-05-06T12:55:34.346Z,101141.72
2019-05-06T12:58:03.731Z,101136.01
2019-05-06T13:00:34.424Z,101142.84
2019-05-06T13:03:03.988Z,101144.38
2019-05-06T13:05:33.326Z,101151.54
2019-05-06T13:08:05.329Z,101158.41
2019-05-06T13:10:33.984Z,101146.40
2019-05-06T13:13:04.815Z,101146.81
2019-05-06T13:15:34.301Z,101135.88
2019-05-06T13:18:07.226Z,101128.69
2019-05-06T13:20:35.987Z,101141.39
2019-05-06T13:23:24.642Z,101130.34
2019-05-06T13:25:52.590Z,101133.53
2019-05-06T13:28:23.122Z,101138.87
2019-05-06T13:30:53.169Z,101127.42
2019-05-06T13:33:37.681Z,101140.36
2019-05-06T13:36:07.062Z,101126.97
2019-05-06T13:38:36.351Z,101147.40
2019-05-06T13:41:05.813Z,101153.07
2019-05-06T13:43:43.554Z,101151.88
2019-05-06T13:46:24.805Z,101162.42
2019-05-06T13:49:13.346Z,101166.00
2019-05-06T13:51:47.076Z,101165.55
2019-05-06T13:54:16.399Z,101172.70
2019-05-06T13:56:48.820Z,101160.54
2019-05-06T13:59:17.074Z,101164.98
2019-05-06T14:02:07.436Z,101171.30
2019-05-06T14:04:36.601Z,101170.11
2019-05-06T14:07:07.364Z,101168.84
2019-05-06T14:09:40.112Z,101158.50
2019-05-06T14:12:07.974Z,101170.52
2019-05-06T14:14:37.367Z,101161.31
2019-05-06T14:17:06.861Z,101167.39
2019-05-06T14:19:36.227Z,101157.80
2019-05-06T14:22:05.647Z,101165.33
2019-05-06T14:24:36.413Z,101154.54
2019-05-06T14:27:08.708Z,101154.63
2019-05-06T14:29:43.181Z,101151.81
2019-05-06T14:32:14.886Z,101145.54
2019-05-06T14:34:43.642Z,101148.90
2019-05-06T14:37:13.071Z,101157.59
2019-05-06T14:39:54.095Z,101156.06
2019-05-06T14:42:16.725Z,101145.92
2019-05-06T14:44:46.049Z,101160.83
2019-05-06T14:47:36.462Z,101169.75
2019-05-06T14:50:06.497Z,101185.09
2019-05-06T14:52:35.724Z,101211.08
2019-05-06T14:55:28.211Z,101217.25
2019-05-06T14:57:57.510Z,101193.55
2019-05-06T15:00:26.859Z,101188.95
2019-05-06T15:02:56.374Z,101171.95
2019-05-06T15:05:25.665Z,101170.85
2019-05-06T15:07:54.936Z,101168.06
2019-05-06T15:10:26.494Z,101163.06
2019-05-06T15:12:55.456Z,101160.16
2019-05-06T15:15:24.854Z,101161.98
2019-05-06T15:17:54.397Z,101148.11
2019-05-06T15:20:23.639Z,101156.17
2019-05-06T15:22:53.100Z,101153.49
2019-05-06T15:25:22.481Z,101150.24
2019-05-06T15:27:53.152Z,101152.50
2019-05-06T15:30:30.427Z,101148.73
2019-05-06T15:32:59.745Z,101160.08
2019-05-06T15:35:46.799Z,101151.56
2019-05-06T15:38:22.086Z,101142.19
2019-05-06T15:40:52.467Z,101153.44
2019-05-06T15:43:22.107Z,101135.89
2019-05-06T15:45:52.549Z,101139.78
2019-05-06T15:48:22.342Z,101130.88
2019-05-06T15:50:53.293Z,101132.64
2019-05-06T15:53:22.833Z,101120.58
2019-05-06T15:55:53.505Z,101124.45
2019-05-06T15:58:23.062Z,101125.33
2019-05-06T16:00:53.106Z,101125.22
2019-05-06T16:03:23.296Z,101121.87
2019-05-06T16:05:55.104Z,101124.08
2019-05-06T16:08:24.563Z,101121.78
2019-05-06T16:10:58.330Z,101131.45
2019-05-06T16:13:25.177Z,101126.24
2019-05-06T16:15:54.519Z,101133.28
2019-05-06T16:18:24.038Z,101121.25
2019-05-06T16:20:57.193Z,101116.23
2019-05-06T16:23:32.750Z,101125.39
2019-05-06T16:26:03.022Z,101114.27
2019-05-06T16:28:32.508Z,101125.73
2019-05-06T16:31:02.435Z,101120.89
2019-05-06T16:33:32.904Z,101123.48
2019-05-06T16:36:02.411Z,101119.15
2019-05-06T16:38:32.717Z,101116.48
2019-05-06T16:41:10.504Z,101115.63
2019-05-06T16:43:34.321Z,101110.44
2019-05-06T16:46:03.746Z,101119.28
2019-05-06T16:48:33.041Z,101117.95
2019-05-06T16:51:04.532Z,101111.64
2019-05-06T16:53:35.101Z,101124.06
2019-05-06T16:56:26.470Z,101138.08
2019-05-06T16:58:58.359Z,101138.64
2019-05-06T17:01:27.951Z,101130.65
2019-05-06T17:04:25.457Z,101143.86
2019-05-06T17:06:54.837Z,101165.34
2019-05-06T17:09:27.534Z,101168.05
2019-05-06T17:11:55.181Z,101176.23
2019-05-06T17:14:24.529Z,101181.89
2019-05-06T17:16:53.804Z,101175.77
2019-05-06T17:19:23.165Z,101161.91
2019-05-06T17:21:52.583Z,101169.01
2019-05-06T17:24:22.077Z,101164.45
2019-05-06T17:26:55.689Z,101167.84
2019-05-06T17:29:32.325Z,101180.44
2019-05-06T17:32:14.076Z,101178.06
2019-05-06T17:34:46.988Z,101179.86
2019-05-06T17:37:36.838Z,101180.19
2019-05-06T17:40:09.969Z,101179.12
2019-05-06T17:42:36.511Z,101173.56
2019-05-06T17:45:25.809Z,101178.16
2019-05-06T17:48:00.154Z,101167.36
2019-05-06T17:50:29.527Z,101174.80
2019-05-06T17:52:58.843Z,101178.93
2019-05-06T17:55:28.199Z,101174.09
2019-05-06T17:57:57.716Z,101183.16
2019-05-06T18:00:27.088Z,101186.66
2019-05-06T18:02:56.362Z,101185.02
2019-05-06T18:05:25.873Z,101182.05
2019-05-06T18:07:55.104Z,101178.54
2019-05-06T18:10:24.398Z,101192.28
2019-05-06T18:12:53.925Z,101205.18
2019-05-06T18:15:23.204Z,101213.31
2019-05-06T18:17:52.570Z,101224.31
2019-05-06T18:20:22.370Z,101236.34
2019-05-06T18:22:52.460Z,101238.69
2019-05-06T18:25:23.047Z,101238.62
2019-05-06T18:30:33.700Z,101241.81
2019-05-06T18:32:58.030Z,101239.52
2019-05-06T18:35:27.323Z,101240.59
2019-05-06T18:37:56.778Z,101239.30
2019-05-06T18:40:26.078Z,101234.41
2019-05-06T18:42:55.382Z,101242.47
2019-05-06T18:45:24.861Z,101241.56
2019-05-06T18:47:54.151Z,101238.96
2019-05-06T18:50:23.471Z,101254.55
2019-05-06T18:52:53.047Z,101255.50
2019-05-06T18:55:22.559Z,101253.03
2019-05-06T18:57:52.818Z,101257.37
2019-05-06T19:00:22.798Z,101258.62
2019-05-06T19:02:52.380Z,101248.83
2019-05-06T19:05:27.094Z,101251.76
2019-05-06T19:07:56.570Z,101249.72
2019-05-06T19:10:28.544Z,101244.88
2019-05-06T19:12:57.850Z,101253.99
2019-05-06T19:15:27.599Z,101252.17
2019-05-06T19:17:57.163Z,101249.45
2019-05-06T19:20:26.544Z,101255.75
2019-05-06T19:22:55.890Z,101250.82
2019-05-06T19:25:26.615Z,101252.97
2019-05-06T19:27:56.104Z,101259.53
2019-05-06T19:30:25.444Z,101254.05
2019-05-06T19:32:54.908Z,101252.20
2019-05-06T19:35:24.238Z,101258.41
2019-05-06T19:37:53.610Z,101255.66
2019-05-06T19:40:23.052Z,101254.09
2019-05-06T19:42:53.268Z,101262.27
2019-05-06T19:45:22.748Z,101264.58
2019-05-06T19:47:52.392Z,101269.41
2019-05-06T19:50:25.718Z,101269.79
2019-05-06T19:52:52.983Z,101271.31
2019-05-06T19:55:23.107Z,101271.98
2019-05-06T19:57:52.691Z,101279.16
2019-05-06T20:00:22.939Z,101286.31
2019-05-06T20:02:52.282Z,101291.25
2019-05-06T20:05:43.452Z,101301.13
2019-05-06T20:08:23.241Z,101300.12
2019-05-06T20:11:14.734Z,101308.62
2019-05-06T20:13:44.012Z,101306.40
2019-05-06T20:16:13.322Z,101310.98
2019-05-06T20:18:43.158Z,101315.83
2019-05-06T20:21:12.483Z,101314.59
2019-05-06T20:23:42.499Z,101310.73
2019-05-06T20:26:12.479Z,101304.84
2019-05-06T20:28:42.923Z,101298.80
2019-05-06T20:31:12.423Z,101302.06
2019-05-06T20:33:42.225Z,101297.27
2019-05-06T20:36:12.579Z,101299.62
2019-05-06T20:38:42.380Z,101299.77
2019-05-06T20:41:12.607Z,101296.70
2019-05-06T20:43:42.407Z,101303.45
2019-05-06T20:46:12.410Z,101327.68
2019-05-06T20:48:42.224Z,101313.19
2019-05-06T20:51:12.307Z,101303.09
2019-05-06T20:53:43.196Z,101282.84
2019-05-06T20:56:12.804Z,101282.88
2019-05-06T20:58:42.176Z,101282.53
2019-05-06T21:01:11.467Z,101276.08
2019-05-06T21:03:42.387Z,101281.78
2019-05-06T21:06:13.214Z,101279.03
2019-05-06T21:08:42.787Z,101276.27
2019-05-06T21:11:25.674Z,101271.70
2019-05-06T21:13:43.331Z,101279.70
2019-05-06T21:16:13.014Z,101282.16
2019-05-06T21:18:42.406Z,101284.77
2019-05-06T21:21:13.590Z,101282.89
2019-05-06T21:23:42.885Z,101282.20
2019-05-06T21:26:13.638Z,101274.48
2019-05-06T21:28:46.282Z,101283.19
2019-05-06T21:31:14.151Z,101273.72
2019-05-06T21:33:43.432Z,101273.13
2019-05-06T21:36:12.750Z,101275.28
2019-05-06T21:38:42.682Z,101272.11
2019-05-06T21:41:12.468Z,101277.61
2019-05-06T21:43:46.951Z,101272.11
2019-05-06T21:46:13.069Z,101269.73
2019-05-06T21:48:42.470Z,101272.00
2019-05-06T21:51:12.705Z,101267.14
2019-05-06T21:53:42.218Z,101271.59
2019-05-06T21:56:13.079Z,101269.31
2019-05-06T21:58:42.873Z,101272.77
2019-05-06T22:01:12.512Z,101259.60
2019-05-06T22:03:43.364Z,101261.42
2019-05-06T22:06:13.161Z,101257.11
2019-05-06T22:08:42.551Z,101267.01
2019-05-06T22:11:11.898Z,101265.69
2019-05-06T22:13:42.551Z,101266.22
2019-05-06T22:16:12.320Z,101261.52
2019-05-06T22:18:43.245Z,101265.45
2019-05-06T22:21:22.552Z,101261.47
2019-05-06T22:24:04.594Z,101261.77
2019-05-06T22:26:33.367Z,101248.84
2019-05-06T22:29:02.721Z,101249.23
2019-05-06T22:31:33.042Z,101251.03
2019-05-06T22:34:02.460Z,101250.06
2019-05-06T22:36:32.377Z,101257.39
2019-05-06T22:39:02.601Z,101249.67
2019-05-06T22:41:32.624Z,101250.73
2019-05-06T22:44:13.028Z,101255.64
2019-05-06T22:46:33.291Z,101257.30
2019-05-06T22:49:02.733Z,101255.34
2019-05-06T22:51:32.442Z,101258.66
2019-05-06T22:54:02.788Z,101252.39
2019-05-06T22:56:32.590Z,101250.30
2019-05-06T22:59:03.284Z,101254.44
2019-05-06T23:01:58.035Z,101244.19
2019-05-06T23:04:28.748Z,101247.06
2019-05-06T23:06:58.053Z,101250.70
2019-05-06T23:09:27.454Z,101243.75
2019-05-06T23:11:56.769Z,101248.56
2019-05-06T23:14:31.497Z,101250.16
2019-05-06T23:16:57.292Z,101249.53
2019-05-06T23:19:26.597Z,101247.16
2019-05-06T23:21:55.963Z,101246.64
2019-05-06T23:24:25.369Z,101244.02
2019-05-06T23:26:54.922Z,101248.69
2019-05-06T23:29:24.222Z,101252.05
2019-05-06T23:31:53.709Z,101253.34
2019-05-06T23:34:23.261Z,101249.17
2019-05-06T23:37:23.429Z,101247.61
2019-05-06T23:40:33.169Z,101253.80
2019-05-06T23:43:38.024Z,101256.42
2019-05-06T23:46:42.610Z,101259.14
2019-05-06T23:49:47.745Z,101256.50
2019-05-06T23:52:52.269Z,101253.88
2019-05-06T23:55:57.124Z,101257.77
2019-05-06T23:58:24.679Z,101255.43
